Terminal Aerodrome Forecast
Issued by NWS Detroit/Pontiac, MI

Home | Current Version | Previous Version | Text Only | Print | Product List | Glossary On
Versions: 1 2 3 4 5 6 7 8 9 10 11 12 13 14 15 16 17 18 19 20
000
FTUS43 KDTX 241242 AAA
TAFFNT
TAF AMD
KFNT 241242Z 2413/2512 22006KT P6SM -SHRA BKN040 OVC080
      TEMPO 2413/2417 3SM TSRA OVC035CB
     FM241800 22012G20KT P6SM SCT050 BKN100
     FM250100 22007KT P6SM BKN100 OVC250
     FM250300 23007KT P6SM -SHRA OVC040
     FM250800 26008KT 5SM BR SCT020 BKN150=

USA.gov is the U.S. government's official web portal to all federal, state and local government web resources and services.